createdAt,value
2019-02-26T00:01:28.587Z,12.09
2019-02-26T00:03:53.959Z,12.36
2019-02-26T00:06:25.483Z,12.53
2019-02-26T00:08:54.123Z,12.50
2019-02-26T00:11:19.662Z,12.42
2019-02-26T00:13:48.632Z,12.49
2019-02-26T00:16:15.815Z,12.58
2019-02-26T00:18:43.647Z,12.60
2019-02-26T00:21:11.215Z,12.64
2019-02-26T00:23:38.706Z,12.46
2019-02-26T00:26:06.126Z,12.56
2019-02-26T00:28:34.171Z,12.60
2019-02-26T00:31:01.760Z,12.62
2019-02-26T00:33:29.013Z,12.63
2019-02-26T00:35:56.298Z,12.60
2019-02-26T00:38:23.893Z,12.59
2019-02-26T00:40:52.130Z,12.55
2019-02-26T00:43:23.265Z,12.47
2019-02-26T00:45:47.072Z,12.43
2019-02-26T00:48:14.551Z,12.42
2019-02-26T00:50:43.832Z,12.40
2019-02-26T00:53:11.532Z,12.45
2019-02-26T00:55:39.681Z,12.47
2019-02-26T00:58:08.571Z,12.46
2019-02-26T01:00:35.819Z,12.41
2019-02-26T01:03:04.057Z,12.45
2019-02-26T01:05:30.949Z,12.35
2019-02-26T01:07:58.515Z,12.41
2019-02-26T01:10:27.122Z,12.41
2019-02-26T01:12:56.391Z,11.85
2019-02-26T01:15:23.669Z,11.38
2019-02-26T01:17:54.939Z,11.26
2019-02-26T01:20:24.278Z,11.50
2019-02-26T01:22:48.187Z,11.76
2019-02-26T01:25:17.889Z,11.86
2019-02-26T01:27:45.587Z,12.04
2019-02-26T01:30:12.938Z,11.51
2019-02-26T01:32:40.454Z,11.31
2019-02-26T01:35:09.019Z,11.55
2019-02-26T01:37:36.574Z,11.85
2019-02-26T01:40:02.833Z,12.01
2019-02-26T01:42:31.676Z,12.05
2019-02-26T01:44:58.055Z,12.13
2019-02-26T01:47:26.279Z,12.13
2019-02-26T01:49:53.276Z,12.15
2019-02-26T01:52:20.776Z,12.18
2019-02-26T01:54:48.268Z,12.21
2019-02-26T01:57:17.441Z,11.78
2019-02-26T01:59:44.358Z,11.61
2019-02-26T02:02:14.746Z,11.34
2019-02-26T02:04:41.266Z,11.33
2019-02-26T02:07:07.078Z,11.42
2019-02-26T02:09:34.545Z,11.12
2019-02-26T02:12:04.302Z,11.06
2019-02-26T02:14:30.276Z,10.85
2019-02-26T02:16:57.896Z,10.83
2019-02-26T02:19:27.415Z,11.13
2019-02-26T02:21:53.930Z,11.36
2019-02-26T02:24:22.270Z,11.30
2019-02-26T02:26:50.451Z,11.45
2019-02-26T02:29:16.823Z,11.69
2019-02-26T02:31:43.845Z,11.51
2019-02-26T02:34:11.400Z,11.56
2019-02-26T02:36:39.016Z,11.46
2019-02-26T02:39:10.469Z,11.29
2019-02-26T02:41:34.682Z,11.27
2019-02-26T02:44:02.220Z,11.35
2019-02-26T02:46:29.724Z,11.15
2019-02-26T02:48:57.199Z,11.30
2019-02-26T02:51:26.214Z,11.31
2019-02-26T02:53:56.671Z,11.30
2019-02-26T02:56:21.797Z,11.30
2019-02-26T02:58:51.624Z,11.26
2019-02-26T03:01:21.818Z,11.14
2019-02-26T03:03:53.873Z,10.84
2019-02-26T03:06:18.865Z,10.82
2019-02-26T03:08:47.975Z,10.83
2019-02-26T03:11:13.981Z,10.79
2019-02-26T03:13:43.104Z,10.89
2019-02-26T03:16:09.776Z,10.76
2019-02-26T03:18:37.321Z,10.73
2019-02-26T03:21:04.934Z,10.78
2019-02-26T03:23:33.937Z,10.66
2019-02-26T03:26:00.318Z,10.70
2019-02-26T03:28:27.900Z,10.95
2019-02-26T03:30:55.396Z,10.83
2019-02-26T03:33:22.911Z,10.91
2019-02-26T03:35:50.427Z,11.13
2019-02-26T03:38:20.749Z,11.27
2019-02-26T03:40:49.354Z,11.28
2019-02-26T03:43:16.217Z,11.34
2019-02-26T03:45:47.307Z,11.20
2019-02-26T03:48:10.276Z,11.05
2019-02-26T03:50:38.579Z,11.00
2019-02-26T03:53:09.027Z,10.98
2019-02-26T03:55:35.930Z,11.37
2019-02-26T03:58:02.171Z,11.61
2019-02-26T04:00:28.746Z,11.73
2019-02-26T04:02:56.210Z,11.73
2019-02-26T04:05:23.781Z,11.75
2019-02-26T04:07:53.236Z,11.87
2019-02-26T04:10:18.732Z,11.82
2019-02-26T04:12:48.970Z,11.85
2019-02-26T04:15:13.848Z,11.88
2019-02-26T04:17:42.219Z,11.33
2019-02-26T04:20:08.963Z,11.64
2019-02-26T04:22:39.158Z,11.75
2019-02-26T04:25:12.631Z,11.78
2019-02-26T04:27:48.575Z,11.81
2019-02-26T04:33:50.491Z,11.85
2019-02-26T04:36:44.735Z,11.55
2019-02-26T04:39:34.443Z,11.83
2019-02-26T04:42:22.891Z,11.92
2019-02-26T04:45:04.896Z,11.82
2019-02-26T04:47:33.708Z,11.88
2019-02-26T04:50:00.488Z,11.36
2019-02-26T04:52:29.369Z,11.03
2019-02-26T04:54:54.895Z,11.24
2019-02-26T04:57:22.410Z,11.45
2019-02-26T04:59:49.912Z,11.57
2019-02-26T05:02:17.319Z,11.59
2019-02-26T05:04:44.815Z,11.39
2019-02-26T05:07:14.060Z,10.53
2019-02-26T05:09:39.802Z,10.46
2019-02-26T05:12:07.324Z,10.69
2019-02-26T05:14:34.842Z,10.72
2019-02-26T05:17:02.339Z,10.77
2019-02-26T05:19:32.347Z,10.73
2019-02-26T05:22:01.679Z,11.05
2019-02-26T05:24:27.811Z,11.18
2019-02-26T05:26:55.247Z,10.87
2019-02-26T05:29:22.713Z,11.13
2019-02-26T05:31:50.184Z,11.28
2019-02-26T05:34:20.148Z,11.30
2019-02-26T05:36:46.212Z,11.44
2019-02-26T05:39:14.571Z,11.50
2019-02-26T05:41:40.673Z,11.51
2019-02-26T05:44:10.572Z,11.49
2019-02-26T05:46:35.088Z,11.43
2019-02-26T05:49:03.564Z,11.50
2019-02-26T05:51:32.670Z,11.49
2019-02-26T05:54:01.312Z,11.43
2019-02-26T05:56:25.791Z,11.13
2019-02-26T05:58:53.238Z,10.87
2019-02-26T06:01:22.513Z,10.72
2019-02-26T06:03:49.684Z,11.07
2019-02-26T06:06:15.664Z,10.78
2019-02-26T06:08:43.122Z,10.66
2019-02-26T06:11:10.601Z,10.12
2019-02-26T06:13:40.184Z,10.08
2019-02-26T06:16:07.511Z,10.03
2019-02-26T06:18:33.051Z,9.92
2019-02-26T06:21:01.306Z,9.94
2019-02-26T06:23:31.213Z,10.12
2019-02-26T06:25:59.084Z,9.83
2019-02-26T06:28:23.902Z,9.76
2019-02-26T06:30:51.384Z,9.87
2019-02-26T06:33:18.827Z,10.10
2019-02-26T06:35:46.282Z,10.34
2019-02-26T06:38:13.892Z,10.53
2019-02-26T06:40:41.910Z,10.74
2019-02-26T06:43:08.825Z,10.80
2019-02-26T06:45:37.959Z,10.76
2019-02-26T06:48:03.744Z,10.63
2019-02-26T06:50:31.823Z,10.47
2019-02-26T06:52:59.554Z,10.24
2019-02-26T06:55:27.026Z,10.17
2019-02-26T06:57:55.150Z,10.00
2019-02-26T07:00:24.583Z,10.35
2019-02-26T07:02:49.591Z,10.17
2019-02-26T07:05:17.086Z,10.27
2019-02-26T07:07:44.533Z,10.12
2019-02-26T07:10:15.991Z,9.96
2019-02-26T07:12:41.200Z,9.88
2019-02-26T07:15:07.006Z,9.82
2019-02-26T07:17:36.185Z,9.80
2019-02-26T07:20:03.161Z,9.81
2019-02-26T07:22:32.068Z,9.70
2019-02-26T07:25:00.270Z,9.68
2019-02-26T07:27:28.854Z,9.65
2019-02-26T07:29:55.246Z,9.80
2019-02-26T07:32:24.540Z,9.86
2019-02-26T07:34:52.121Z,9.93
2019-02-26T07:37:17.778Z,9.89
2019-02-26T07:39:47.201Z,9.92
2019-02-26T07:42:14.664Z,9.93
2019-02-26T07:44:40.738Z,9.94
2019-02-26T07:47:08.867Z,10.06
2019-02-26T07:49:35.723Z,10.20
2019-02-26T07:52:05.896Z,10.17
2019-02-26T07:54:30.806Z,10.31
2019-02-26T07:57:00.201Z,10.41
2019-02-26T07:59:27.855Z,10.53
2019-02-26T08:01:53.301Z,10.54
2019-02-26T08:04:20.766Z,10.68
2019-02-26T08:06:48.695Z,10.83
2019-02-26T08:09:17.177Z,10.90
2019-02-26T08:11:46.191Z,11.03
2019-02-26T08:14:11.242Z,11.13
2019-02-26T08:16:38.723Z,11.15
2019-02-26T08:19:06.178Z,11.30
2019-02-26T08:21:33.631Z,11.52
2019-02-26T08:24:01.335Z,11.64
2019-02-26T08:26:29.221Z,11.75
2019-02-26T08:28:56.818Z,11.84
2019-02-26T08:31:25.569Z,11.90
2019-02-26T08:33:51.923Z,11.92
2019-02-26T08:36:19.358Z,11.98
2019-02-26T08:38:46.822Z,12.06
2019-02-26T08:41:14.258Z,12.10
2019-02-26T08:43:44.153Z,12.17
2019-02-26T08:46:10.054Z,12.25
2019-02-26T08:48:36.698Z,12.31
2019-02-26T08:51:06.194Z,12.34
2019-02-26T08:53:32.098Z,12.39
2019-02-26T08:56:03.412Z,12.50
2019-02-26T08:58:28.241Z,12.57
2019-02-26T09:00:54.955Z,12.59
2019-02-26T09:03:22.441Z,12.59
2019-02-26T09:05:51.611Z,12.71
2019-02-26T09:08:18.132Z,12.79
2019-02-26T09:10:46.939Z,12.86
2019-02-26T09:13:14.539Z,13.01
2019-02-26T09:15:41.372Z,13.18
2019-02-26T09:18:07.747Z,13.21
2019-02-26T09:20:35.350Z,13.26
2019-02-26T09:23:02.801Z,13.32
2019-02-26T09:25:31.553Z,13.38
2019-02-26T09:27:57.718Z,13.39
2019-02-26T09:30:27.947Z,13.42
2019-02-26T09:32:54.319Z,13.47
2019-02-26T09:35:25.345Z,13.54
2019-02-26T09:37:52.054Z,13.58
2019-02-26T09:40:20.075Z,13.63
2019-02-26T09:42:47.174Z,13.71
2019-02-26T09:45:23.675Z,13.76
2019-02-26T09:47:51.634Z,13.80
2019-02-26T09:50:17.718Z,13.82
2019-02-26T09:52:45.280Z,13.88
2019-02-26T09:55:12.857Z,13.94
2019-02-26T09:57:40.296Z,13.97
2019-02-26T10:00:09.079Z,14.03
2019-02-26T10:02:36.526Z,14.09
2019-02-26T10:05:03.995Z,14.15
2019-02-26T10:07:35.559Z,14.22
2019-02-26T10:10:00.424Z,14.23
2019-02-26T10:12:28.006Z,14.32
2019-02-26T10:14:54.817Z,14.38
2019-02-26T10:17:21.531Z,14.47
2019-02-26T10:19:48.851Z,14.51
2019-02-26T10:22:16.338Z,14.56
2019-02-26T10:24:43.799Z,14.61
2019-02-26T10:27:12.123Z,14.69
2019-02-26T10:29:39.843Z,14.72
2019-02-26T10:32:06.293Z,14.77
2019-02-26T10:34:33.746Z,14.80
2019-02-26T10:37:01.216Z,14.82
2019-02-26T10:39:29.662Z,14.87
2019-02-26T10:41:57.164Z,14.87
2019-02-26T10:44:24.591Z,14.97
2019-02-26T10:46:52.038Z,14.97
2019-02-26T10:49:19.490Z,15.05
2019-02-26T10:51:46.990Z,15.04
2019-02-26T10:54:17.817Z,15.10
2019-02-26T10:56:44.328Z,15.10
2019-02-26T10:59:12.557Z,15.09
2019-02-26T11:01:36.896Z,15.14
2019-02-26T11:04:04.730Z,15.22
2019-02-26T11:06:33.736Z,15.17
2019-02-26T11:09:01.770Z,15.34
2019-02-26T11:11:26.810Z,15.34
2019-02-26T11:13:54.281Z,15.35
2019-02-26T11:16:25.183Z,15.43
2019-02-26T11:18:49.167Z,15.41
2019-02-26T11:21:16.621Z,15.48
2019-02-26T11:23:46.288Z,15.51
2019-02-26T11:26:13.164Z,15.56
2019-02-26T11:28:40.554Z,15.50
2019-02-26T11:31:09.028Z,15.59
2019-02-26T11:33:35.014Z,15.60
2019-02-26T11:36:05.517Z,15.61
2019-02-26T11:38:34.779Z,15.67
2019-02-26T11:40:59.456Z,15.76
2019-02-26T11:43:28.961Z,15.80
2019-02-26T11:45:56.126Z,15.78
2019-02-26T11:48:23.472Z,15.79
2019-02-26T11:50:49.340Z,15.86
2019-02-26T11:53:16.811Z,15.93
2019-02-26T11:55:44.236Z,15.92
2019-02-26T11:58:13.661Z,15.89
2019-02-26T12:00:41.755Z,16.01
2019-02-26T12:03:06.663Z,16.05
2019-02-26T12:05:36.036Z,16.12
2019-02-26T12:08:01.590Z,16.16
2019-02-26T12:10:30.488Z,16.25
2019-02-26T12:12:57.283Z,16.27
2019-02-26T12:15:24.374Z,16.24
2019-02-26T12:17:54.007Z,16.31
2019-02-26T12:20:19.645Z,16.33
2019-02-26T12:22:49.299Z,16.37
2019-02-26T12:25:14.555Z,16.46
2019-02-26T12:27:43.421Z,16.48
2019-02-26T12:30:10.094Z,16.50
2019-02-26T12:32:36.971Z,16.50
2019-02-26T12:35:05.878Z,16.53
2019-02-26T12:37:31.932Z,16.81
2019-02-26T12:39:59.363Z,16.90
2019-02-26T12:42:26.829Z,16.81
2019-02-26T12:44:57.246Z,16.77
2019-02-26T12:47:24.538Z,16.83
2019-02-26T12:49:49.241Z,16.94
2019-02-26T12:52:17.983Z,16.91
2019-02-26T12:54:44.163Z,16.97
2019-02-26T12:57:11.625Z,16.99
2019-02-26T12:59:39.089Z,17.02
2019-02-26T13:02:09.331Z,17.02
2019-02-26T13:04:34.187Z,17.05
2019-02-26T13:07:01.747Z,17.09
2019-02-26T13:09:29.198Z,17.10
2019-02-26T13:12:02.401Z,17.34
2019-02-26T13:14:24.151Z,17.35
2019-02-26T13:16:53.348Z,17.30
2019-02-26T13:19:22.077Z,17.32
2019-02-26T13:21:47.556Z,17.33
2019-02-26T13:24:17.819Z,17.43
2019-02-26T13:26:46.930Z,17.44
2019-02-26T13:29:10.273Z,17.65
2019-02-26T13:31:42.566Z,17.55
2019-02-26T13:34:05.248Z,17.61
2019-02-26T13:36:36.357Z,17.78
2019-02-26T13:39:00.146Z,17.70
2019-02-26T13:41:30.016Z,17.67
2019-02-26T13:43:55.096Z,17.70
2019-02-26T13:46:22.518Z,17.74
2019-02-26T13:48:49.952Z,17.76
2019-02-26T13:51:17.399Z,17.91
2019-02-26T13:53:45.803Z,17.90
2019-02-26T13:56:13.330Z,17.86
2019-02-26T13:58:41.024Z,17.94
2019-02-26T14:01:08.491Z,18.00
2019-02-26T14:03:36.429Z,18.13
2019-02-26T14:06:04.105Z,18.16
2019-02-26T14:08:31.587Z,18.21
2019-02-26T14:10:59.033Z,18.13
2019-02-26T14:13:26.493Z,18.10
2019-02-26T14:15:53.950Z,18.10
2019-02-26T14:18:21.453Z,18.09
2019-02-26T14:20:48.892Z,17.99
2019-02-26T14:23:16.386Z,18.06
2019-02-26T14:25:43.870Z,18.15
2019-02-26T14:28:11.324Z,18.14
2019-02-26T14:30:38.796Z,18.07
2019-02-26T14:33:06.277Z,18.02
2019-02-26T14:35:33.729Z,18.08
2019-02-26T14:38:01.198Z,18.05
2019-02-26T14:40:29.628Z,18.06
2019-02-26T14:42:57.148Z,18.09
2019-02-26T14:45:24.645Z,18.13
2019-02-26T14:47:52.071Z,18.14
2019-02-26T14:50:20.442Z,18.12
2019-02-26T14:52:47.912Z,18.11
2019-02-26T14:55:15.362Z,18.07
2019-02-26T14:57:42.809Z,18.16
2019-02-26T15:00:27.011Z,18.17
2019-02-26T15:02:55.676Z,18.17
2019-02-26T15:05:23.126Z,18.16
2019-02-26T15:07:50.612Z,18.05
2019-02-26T15:10:18.047Z,18.20
2019-02-26T15:12:46.254Z,18.23
2019-02-26T15:15:18.883Z,18.27
2019-02-26T15:17:46.600Z,18.29
2019-02-26T15:20:20.303Z,18.35
2019-02-26T15:22:47.772Z,18.34
2019-02-26T15:25:21.033Z,18.39
2019-02-26T15:27:48.531Z,18.37
2019-02-26T15:30:16.194Z,18.44
2019-02-26T15:32:43.799Z,18.41
2019-02-26T15:35:11.144Z,18.43
2019-02-26T15:37:38.640Z,18.43
2019-02-26T15:40:06.894Z,18.34
2019-02-26T15:42:34.351Z,18.38
2019-02-26T15:45:01.794Z,18.31
2019-02-26T15:47:30.483Z,18.31
2019-02-26T15:49:56.759Z,18.26
2019-02-26T15:52:24.254Z,18.24
2019-02-26T15:54:51.717Z,18.25
2019-02-26T15:57:19.168Z,18.22
2019-02-26T15:59:46.631Z,18.16
2019-02-26T16:02:14.090Z,18.18
2019-02-26T16:04:41.566Z,18.17
2019-02-26T16:07:09.046Z,18.12
2019-02-26T16:09:36.496Z,18.12
2019-02-26T16:12:03.983Z,18.09
2019-02-26T16:14:31.434Z,18.09
2019-02-26T16:16:58.886Z,18.04
2019-02-26T16:19:26.355Z,18.04
2019-02-26T16:21:54.221Z,18.02
2019-02-26T16:24:21.898Z,18.04
2019-02-26T16:26:49.373Z,17.83
2019-02-26T16:29:16.831Z,17.92
2019-02-26T16:31:44.319Z,17.86
2019-02-26T16:34:14.083Z,17.83
2019-02-26T16:36:41.557Z,17.83
2019-02-26T16:39:09.010Z,17.82
2019-02-26T16:41:38.297Z,17.84
2019-02-26T16:44:04.027Z,17.79
2019-02-26T16:46:31.467Z,17.74
2019-02-26T16:48:58.936Z,17.65
2019-02-26T16:51:26.425Z,17.55
2019-02-26T16:53:53.892Z,17.52
2019-02-26T16:56:21.949Z,17.39
2019-02-26T16:58:48.862Z,17.33
2019-02-26T17:01:16.449Z,17.29
2019-02-26T17:03:43.897Z,17.19
2019-02-26T17:06:11.343Z,17.18
2019-02-26T17:08:38.810Z,17.10
2019-02-26T17:11:06.288Z,17.00
2019-02-26T17:13:33.771Z,16.96
2019-02-26T17:16:01.217Z,16.93
2019-02-26T17:18:28.659Z,16.86
2019-02-26T17:20:56.994Z,16.85
2019-02-26T17:23:23.615Z,16.81
2019-02-26T17:25:51.126Z,16.79
2019-02-26T17:28:18.886Z,16.76
2019-02-26T17:30:47.168Z,16.72
2019-02-26T17:33:14.693Z,16.71
2019-02-26T17:35:42.409Z,16.71
2019-02-26T17:38:10.172Z,16.66
2019-02-26T17:40:38.255Z,16.56
2019-02-26T17:43:06.168Z,16.52
2019-02-26T17:45:37.222Z,16.57
2019-02-26T17:48:03.243Z,16.59
2019-02-26T17:50:36.181Z,16.61
2019-02-26T17:53:03.640Z,16.58
2019-02-26T17:55:31.102Z,16.36
2019-02-26T17:58:00.536Z,16.22
2019-02-26T18:00:26.085Z,16.16
2019-02-26T18:02:53.548Z,16.06
2019-02-26T18:05:21.357Z,15.82
2019-02-26T18:07:48.792Z,15.89
2019-02-26T18:10:16.282Z,15.94
2019-02-26T18:12:43.862Z,16.10
2019-02-26T18:15:11.377Z,15.93
2019-02-26T18:17:38.832Z,15.95
2019-02-26T18:20:14.817Z,16.05
2019-02-26T18:22:42.268Z,16.09
2019-02-26T18:25:09.763Z,16.05
2019-02-26T18:27:37.799Z,16.16
2019-02-26T18:30:06.226Z,15.98
2019-02-26T18:32:33.697Z,15.97
2019-02-26T18:35:01.185Z,15.93
2019-02-26T18:37:28.710Z,15.88
2019-02-26T18:39:56.152Z,15.66
2019-02-26T18:42:23.615Z,15.32
2019-02-26T18:44:54.161Z,15.26
2019-02-26T18:47:20.631Z,15.48
2019-02-26T18:49:47.087Z,15.53
2019-02-26T18:52:14.557Z,15.51
2019-02-26T18:54:42.053Z,15.60
2019-02-26T18:57:11.263Z,15.64
2019-02-26T18:59:36.955Z,15.39
2019-02-26T19:02:04.417Z,15.34
2019-02-26T19:04:31.862Z,15.51
2019-02-26T19:06:59.717Z,15.48
2019-02-26T19:09:27.805Z,15.38
2019-02-26T19:11:55.535Z,15.22
2019-02-26T19:14:21.979Z,15.03
2019-02-26T19:16:54.049Z,14.86
2019-02-26T19:19:16.982Z,14.74
2019-02-26T19:21:44.444Z,14.58
2019-02-26T19:24:13.646Z,14.55
2019-02-26T19:26:41.356Z,14.54
2019-02-26T19:29:10.137Z,14.46
2019-02-26T19:31:36.346Z,14.45
2019-02-26T19:34:03.951Z,14.29
2019-02-26T19:36:31.426Z,14.04
2019-02-26T19:39:00.973Z,14.14
2019-02-26T19:41:26.395Z,14.23
2019-02-26T19:43:53.871Z,14.23
2019-02-26T19:46:23.220Z,14.19
2019-02-26T19:48:50.707Z,14.19
2019-02-26T19:51:21.929Z,14.33
2019-02-26T19:53:45.805Z,14.41
2019-02-26T19:56:13.403Z,14.11
2019-02-26T19:58:41.465Z,14.05
2019-02-26T20:01:08.354Z,14.13
2019-02-26T20:03:40.001Z,14.02
2019-02-26T20:06:03.731Z,14.16
2019-02-26T20:08:31.335Z,14.47
2019-02-26T20:10:58.815Z,14.39
2019-02-26T20:13:26.249Z,14.34
2019-02-26T20:15:54.859Z,14.28
2019-02-26T20:18:25.833Z,14.34
2019-02-26T20:20:48.862Z,14.15
2019-02-26T20:23:16.340Z,13.90
2019-02-26T20:25:43.830Z,13.75
2019-02-26T20:28:11.326Z,14.03
2019-02-26T20:30:38.809Z,13.81
2019-02-26T20:33:06.292Z,13.58
2019-02-26T20:35:33.766Z,13.66
2019-02-26T20:38:01.504Z,13.69
2019-02-26T20:40:28.974Z,13.46
2019-02-26T20:42:56.456Z,13.61
2019-02-26T20:45:24.113Z,13.48
2019-02-26T20:47:52.368Z,13.50
2019-02-26T20:50:21.223Z,13.58
2019-02-26T20:52:47.409Z,13.62
2019-02-26T20:55:20.818Z,13.74
2019-02-26T20:57:48.263Z,13.66
2019-02-26T21:00:16.579Z,13.87
2019-02-26T21:02:44.055Z,13.94
2019-02-26T21:05:11.490Z,13.78
2019-02-26T21:07:38.982Z,13.84
2019-02-26T21:10:06.490Z,13.92
2019-02-26T21:12:34.829Z,13.98
2019-02-26T21:15:01.477Z,13.97
2019-02-26T21:17:28.974Z,14.00
2019-02-26T21:19:56.481Z,13.97
2019-02-26T21:22:24.000Z,13.98
2019-02-26T21:24:51.493Z,13.96
2019-02-26T21:27:18.960Z,13.97
2019-02-26T21:29:46.450Z,13.98
2019-02-26T21:32:13.945Z,13.95
2019-02-26T21:34:42.901Z,13.93
2019-02-26T21:37:08.997Z,13.88
2019-02-26T21:39:36.489Z,13.84
2019-02-26T21:42:03.935Z,13.87
2019-02-26T21:44:31.421Z,13.85
2019-02-26T21:46:58.867Z,13.43
2019-02-26T21:49:26.319Z,13.19
2019-02-26T21:51:55.210Z,13.25
2019-02-26T21:54:24.727Z,13.27
2019-02-26T21:56:50.706Z,13.18
2019-02-26T21:59:18.191Z,12.97
2019-02-26T22:01:46.115Z,12.99
2019-02-26T22:04:13.373Z,12.86
2019-02-26T22:06:44.480Z,12.73
2019-02-26T22:09:08.342Z,13.02
2019-02-26T22:11:35.772Z,13.11
2019-02-26T22:14:03.569Z,12.82
2019-02-26T22:16:30.740Z,12.84
2019-02-26T22:18:58.274Z,12.36
2019-02-26T22:23:53.526Z,12.38
2019-02-26T22:26:20.983Z,12.30
2019-02-26T22:28:50.220Z,12.12
2019-02-26T22:31:17.802Z,12.55
2019-02-26T22:33:46.393Z,12.79
2019-02-26T22:36:12.996Z,12.79
2019-02-26T22:38:40.583Z,12.84
2019-02-26T22:41:08.343Z,12.88
2019-02-26T22:43:35.863Z,12.91
2019-02-26T22:46:03.307Z,13.03
2019-02-26T22:48:30.807Z,13.04
2019-02-26T22:50:59.726Z,13.11
2019-02-26T22:53:25.752Z,13.18
2019-02-26T22:55:53.194Z,13.05
2019-02-26T22:58:20.633Z,13.16
2019-02-26T23:01:01.381Z,13.17
2019-02-26T23:03:28.846Z,13.04
2019-02-26T23:05:58.823Z,12.76
2019-02-26T23:08:23.834Z,13.01
2019-02-26T23:10:51.485Z,12.75
2019-02-26T23:13:18.878Z,12.49
2019-02-26T23:15:48.592Z,12.29
2019-02-26T23:18:16.051Z,12.24
2019-02-26T23:20:43.520Z,12.11
2019-02-26T23:23:10.992Z,12.34
2019-02-26T23:25:38.458Z,12.56
2019-02-26T23:28:05.954Z,12.49
2019-02-26T23:30:33.388Z,12.52
2019-02-26T23:33:00.959Z,12.72
2019-02-26T23:35:28.485Z,12.72
2019-02-26T23:37:56.505Z,12.68
2019-02-26T23:40:27.420Z,12.54
2019-02-26T23:42:53.878Z,11.86
2019-02-26T23:45:24.236Z,11.89
2019-02-26T23:47:51.350Z,11.77
2019-02-26T23:50:19.420Z,12.12
2019-02-26T23:52:47.273Z,12.39
2019-02-26T23:55:16.637Z,12.49
2019-02-26T23:57:44.391Z,12.57
